sensor_id;sensor_type;location;lat;lon;timestamp;P1;durP1;ratioP1;P2;durP2;ratioP2
22502;SDS011;11418;48.118;9.992;2022-07-19T00:01:23;5.07;;;3.40;;
22502;SDS011;11418;48.118;9.992;2022-07-19T00:05:39;4.57;;;3.58;;
22502;SDS011;11418;48.118;9.992;2022-07-19T00:09:40;5.60;;;3.40;;
22502;SDS011;11418;48.118;9.992;2022-07-19T00:13:40;3.60;;;3.30;;
22502;SDS011;11418;48.118;9.992;2022-07-19T00:17:42;7.20;;;3.78;;
22502;SDS011;11418;48.118;9.992;2022-07-19T00:21:44;5.85;;;4.07;;
22502;SDS011;11418;48.118;9.992;2022-07-19T00:25:45;5.47;;;4.25;;
22502;SDS011;11418;48.118;9.992;2022-07-19T00:29:45;4.47;;;3.60;;
22502;SDS011;11418;48.118;9.992;2022-07-19T00:33:46;4.10;;;3.40;;
22502;SDS011;11418;48.118;9.992;2022-07-19T00:37:47;4.65;;;3.42;;
22502;SDS011;11418;48.118;9.992;2022-07-19T00:41:47;4.75;;;3.40;;
22502;SDS011;11418;48.118;9.992;2022-07-19T00:45:48;5.60;;;3.47;;
22502;SDS011;11418;48.118;9.992;2022-07-19T00:49:49;3.63;;;3.05;;
22502;SDS011;11418;48.118;9.992;2022-07-19T00:53:52;5.97;;;3.50;;
22502;SDS011;11418;48.118;9.992;2022-07-19T00:57:55;4.90;;;3.63;;
22502;SDS011;11418;48.118;9.992;2022-07-19T01:01:58;4.65;;;3.92;;
22502;SDS011;11418;48.118;9.992;2022-07-19T01:06:01;7.63;;;4.07;;
22502;SDS011;11418;48.118;9.992;2022-07-19T01:10:02;6.22;;;3.75;;
22502;SDS011;11418;48.118;9.992;2022-07-19T01:14:04;4.10;;;3.65;;
22502;SDS011;11418;48.118;9.992;2022-07-19T01:18:05;6.32;;;4.45;;
22502;SDS011;11418;48.118;9.992;2022-07-19T01:22:05;5.05;;;4.00;;
22502;SDS011;11418;48.118;9.992;2022-07-19T01:26:06;6.43;;;3.67;;
22502;SDS011;11418;48.118;9.992;2022-07-19T01:30:17;4.25;;;3.85;;
22502;SDS011;11418;48.118;9.992;2022-07-19T01:34:19;6.72;;;4.13;;
22502;SDS011;11418;48.118;9.992;2022-07-19T01:38:20;5.97;;;4.53;;
22502;SDS011;11418;48.118;9.992;2022-07-19T01:42:21;5.55;;;4.28;;
22502;SDS011;11418;48.118;9.992;2022-07-19T01:46:23;6.00;;;3.92;;
22502;SDS011;11418;48.118;9.992;2022-07-19T01:50:24;5.53;;;3.80;;
22502;SDS011;11418;48.118;9.992;2022-07-19T01:54:47;5.03;;;4.00;;
22502;SDS011;11418;48.118;9.992;2022-07-19T02:03:20;4.15;;;3.75;;
22502;SDS011;11418;48.118;9.992;2022-07-19T02:12:17;5.05;;;3.90;;
22502;SDS011;11418;48.118;9.992;2022-07-19T02:16:37;4.38;;;3.97;;
22502;SDS011;11418;48.118;9.992;2022-07-19T02:21:11;4.60;;;4.13;;
22502;SDS011;11418;48.118;9.992;2022-07-19T02:25:18;5.20;;;4.28;;
22502;SDS011;11418;48.118;9.992;2022-07-19T02:29:39;5.07;;;4.05;;
22502;SDS011;11418;48.118;9.992;2022-07-19T02:33:40;8.00;;;4.50;;
22502;SDS011;11418;48.118;9.992;2022-07-19T02:38:16;5.43;;;3.95;;
22502;SDS011;11418;48.118;9.992;2022-07-19T02:42:18;5.82;;;4.15;;
22502;SDS011;11418;48.118;9.992;2022-07-19T02:50:51;7.65;;;4.32;;
22502;SDS011;11418;48.118;9.992;2022-07-19T02:55:12;8.93;;;4.60;;
22502;SDS011;11418;48.118;9.992;2022-07-19T03:04:18;6.82;;;4.60;;
22502;SDS011;11418;48.118;9.992;2022-07-19T03:08:28;5.43;;;4.70;;
22502;SDS011;11418;48.118;9.992;2022-07-19T03:12:35;5.53;;;4.70;;
22502;SDS011;11418;48.118;9.992;2022-07-19T03:16:42;5.45;;;4.70;;
22502;SDS011;11418;48.118;9.992;2022-07-19T03:30:18;6.20;;;4.00;;
22502;SDS011;11418;48.118;9.992;2022-07-19T03:34:31;6.25;;;4.53;;
22502;SDS011;11418;48.118;9.992;2022-07-19T03:42:58;6.05;;;5.10;;
22502;SDS011;11418;48.118;9.992;2022-07-19T03:46:59;6.22;;;4.82;;
22502;SDS011;11418;48.118;9.992;2022-07-19T03:51:02;9.60;;;5.30;;
22502;SDS011;11418;48.118;9.992;2022-07-19T03:55:09;8.80;;;4.60;;
22502;SDS011;11418;48.118;9.992;2022-07-19T03:59:19;10.32;;;5.43;;
22502;SDS011;11418;48.118;9.992;2022-07-19T04:03:58;6.22;;;5.07;;
22502;SDS011;11418;48.118;9.992;2022-07-19T04:08:02;5.28;;;4.55;;
22502;SDS011;11418;48.118;9.992;2022-07-19T04:12:02;5.43;;;3.88;;
22502;SDS011;11418;48.118;9.992;2022-07-19T04:16:15;6.47;;;4.22;;
22502;SDS011;11418;48.118;9.992;2022-07-19T04:20:16;5.35;;;4.28;;
22502;SDS011;11418;48.118;9.992;2022-07-19T04:24:23;5.75;;;4.20;;
22502;SDS011;11418;48.118;9.992;2022-07-19T04:28:30;6.57;;;3.80;;
22502;SDS011;11418;48.118;9.992;2022-07-19T04:33:19;4.65;;;4.03;;
22502;SDS011;11418;48.118;9.992;2022-07-19T04:37:19;6.15;;;3.83;;
22502;SDS011;11418;48.118;9.992;2022-07-19T04:42:01;4.90;;;4.10;;
22502;SDS011;11418;48.118;9.992;2022-07-19T04:51:01;7.93;;;4.60;;
22502;SDS011;11418;48.118;9.992;2022-07-19T04:55:20;4.57;;;4.15;;
22502;SDS011;11418;48.118;9.992;2022-07-19T04:59:24;5.78;;;4.63;;
22502;SDS011;11418;48.118;9.992;2022-07-19T05:03:34;5.40;;;4.60;;
22502;SDS011;11418;48.118;9.992;2022-07-19T05:07:40;5.03;;;4.33;;
22502;SDS011;11418;48.118;9.992;2022-07-19T05:20:57;4.72;;;4.22;;
22502;SDS011;11418;48.118;9.992;2022-07-19T05:25:26;7.05;;;4.35;;
22502;SDS011;11418;48.118;9.992;2022-07-19T05:30:02;7.10;;;4.30;;
22502;SDS011;11418;48.118;9.992;2022-07-19T05:34:28;5.82;;;4.50;;
22502;SDS011;11418;48.118;9.992;2022-07-19T05:48:52;5.80;;;4.80;;
22502;SDS011;11418;48.118;9.992;2022-07-19T06:02:52;9.13;;;4.90;;
22502;SDS011;11418;48.118;9.992;2022-07-19T06:07:11;4.78;;;4.38;;
22502;SDS011;11418;48.118;9.992;2022-07-19T06:11:17;5.45;;;3.85;;
22502;SDS011;11418;48.118;9.992;2022-07-19T06:15:34;4.45;;;3.90;;
22502;SDS011;11418;48.118;9.992;2022-07-19T06:39:02;4.00;;;3.50;;
22502;SDS011;11418;48.118;9.992;2022-07-19T06:52:42;3.30;;;2.50;;
22502;SDS011;11418;48.118;9.992;2022-07-19T07:06:19;4.03;;;2.38;;
22502;SDS011;11418;48.118;9.992;2022-07-19T07:10:37;3.03;;;2.00;;
22502;SDS011;11418;48.118;9.992;2022-07-19T07:14:52;3.15;;;2.38;;
22502;SDS011;11418;48.118;9.992;2022-07-19T07:19:00;2.90;;;2.65;;
22502;SDS011;11418;48.118;9.992;2022-07-19T07:23:04;4.82;;;2.17;;
22502;SDS011;11418;48.118;9.992;2022-07-19T07:27:17;2.17;;;1.98;;
22502;SDS011;11418;48.118;9.992;2022-07-19T07:31:48;4.25;;;1.77;;
22502;SDS011;11418;48.118;9.992;2022-07-19T07:36:09;4.47;;;1.95;;
22502;SDS011;11418;48.118;9.992;2022-07-19T07:40:19;5.65;;;2.03;;
22502;SDS011;11418;48.118;9.992;2022-07-19T07:44:41;2.28;;;1.63;;
22502;SDS011;11418;48.118;9.992;2022-07-19T08:04:28;6.53;;;1.60;;
22502;SDS011;11418;48.118;9.992;2022-07-19T08:09:18;5.13;;;2.08;;
22502;SDS011;11418;48.118;9.992;2022-07-19T08:13:40;5.68;;;1.85;;
22502;SDS011;11418;48.118;9.992;2022-07-19T08:23:07;2.53;;;1.77;;
22502;SDS011;11418;48.118;9.992;2022-07-19T08:27:14;3.43;;;1.93;;
22502;SDS011;11418;48.118;9.992;2022-07-19T08:32:29;1.90;;;1.70;;
22502;SDS011;11418;48.118;9.992;2022-07-19T08:37:16;3.60;;;1.80;;
22502;SDS011;11418;48.118;9.992;2022-07-19T08:41:46;2.30;;;1.77;;
22502;SDS011;11418;48.118;9.992;2022-07-19T08:45:47;2.78;;;1.77;;
22502;SDS011;11418;48.118;9.992;2022-07-19T08:49:48;5.30;;;2.00;;
22502;SDS011;11418;48.118;9.992;2022-07-19T08:53:49;2.38;;;1.75;;
22502;SDS011;11418;48.118;9.992;2022-07-19T08:57:50;2.35;;;1.90;;
22502;SDS011;11418;48.118;9.992;2022-07-19T09:01:57;3.85;;;2.00;;
22502;SDS011;11418;48.118;9.992;2022-07-19T09:06:03;2.40;;;2.20;;
22502;SDS011;11418;48.118;9.992;2022-07-19T09:10:17;3.40;;;2.10;;
22502;SDS011;11418;48.118;9.992;2022-07-19T09:14:21;3.88;;;2.67;;
22502;SDS011;11418;48.118;9.992;2022-07-19T09:18:28;3.15;;;2.40;;
22502;SDS011;11418;48.118;9.992;2022-07-19T09:22:30;4.63;;;2.33;;
22502;SDS011;11418;48.118;9.992;2022-07-19T09:26:30;2.42;;;2.22;;
22502;SDS011;11418;48.118;9.992;2022-07-19T09:30:31;2.35;;;2.15;;
22502;SDS011;11418;48.118;9.992;2022-07-19T09:34:42;5.82;;;2.75;;
22502;SDS011;11418;48.118;9.992;2022-07-19T09:38:51;2.97;;;2.67;;
22502;SDS011;11418;48.118;9.992;2022-07-19T09:42:52;3.10;;;2.50;;
22502;SDS011;11418;48.118;9.992;2022-07-19T09:46:53;4.10;;;2.60;;
22502;SDS011;11418;48.118;9.992;2022-07-19T09:50:53;3.17;;;2.40;;
22502;SDS011;11418;48.118;9.992;2022-07-19T09:54:54;3.97;;;2.40;;
22502;SDS011;11418;48.118;9.992;2022-07-19T09:58:56;3.55;;;2.20;;
22502;SDS011;11418;48.118;9.992;2022-07-19T10:02:59;3.42;;;2.03;;
22502;SDS011;11418;48.118;9.992;2022-07-19T10:07:00;3.10;;;2.33;;
22502;SDS011;11418;48.118;9.992;2022-07-19T10:11:02;4.05;;;2.20;;
22502;SDS011;11418;48.118;9.992;2022-07-19T10:15:03;4.20;;;1.95;;
22502;SDS011;11418;48.118;9.992;2022-07-19T10:19:05;3.60;;;2.10;;
22502;SDS011;11418;48.118;9.992;2022-07-19T10:23:16;3.70;;;2.20;;
22502;SDS011;11418;48.118;9.992;2022-07-19T10:31:28;3.42;;;2.38;;
22502;SDS011;11418;48.118;9.992;2022-07-19T10:35:35;2.80;;;2.13;;
22502;SDS011;11418;48.118;9.992;2022-07-19T10:39:38;3.17;;;2.20;;
22502;SDS011;11418;48.118;9.992;2022-07-19T10:43:39;2.60;;;2.22;;
22502;SDS011;11418;48.118;9.992;2022-07-19T10:48:10;2.75;;;2.25;;
22502;SDS011;11418;48.118;9.992;2022-07-19T11:00:32;5.00;;;2.25;;
22502;SDS011;11418;48.118;9.992;2022-07-19T11:04:40;3.47;;;2.38;;
22502;SDS011;11418;48.118;9.992;2022-07-19T11:08:42;2.80;;;2.53;;
22502;SDS011;11418;48.118;9.992;2022-07-19T11:12:43;5.85;;;2.63;;
22502;SDS011;11418;48.118;9.992;2022-07-19T11:16:45;5.63;;;2.72;;
22502;SDS011;11418;48.118;9.992;2022-07-19T11:20:45;3.00;;;2.63;;
22502;SDS011;11418;48.118;9.992;2022-07-19T11:24:46;5.22;;;2.67;;
22502;SDS011;11418;48.118;9.992;2022-07-19T11:28:46;3.80;;;2.70;;
22502;SDS011;11418;48.118;9.992;2022-07-19T11:32:52;3.53;;;2.67;;
22502;SDS011;11418;48.118;9.992;2022-07-19T11:36:58;3.78;;;2.60;;
22502;SDS011;11418;48.118;9.992;2022-07-19T11:40:58;4.18;;;2.60;;
22502;SDS011;11418;48.118;9.992;2022-07-19T11:44:59;7.75;;;2.95;;
22502;SDS011;11418;48.118;9.992;2022-07-19T11:49:17;4.32;;;2.67;;
22502;SDS011;11418;48.118;9.992;2022-07-19T11:53:21;6.18;;;2.80;;
22502;SDS011;11418;48.118;9.992;2022-07-19T11:57:22;7.57;;;3.15;;
22502;SDS011;11418;48.118;9.992;2022-07-19T12:01:24;7.10;;;2.95;;
22502;SDS011;11418;48.118;9.992;2022-07-19T12:05:30;6.90;;;2.92;;
22502;SDS011;11418;48.118;9.992;2022-07-19T12:09:32;4.95;;;2.75;;
22502;SDS011;11418;48.118;9.992;2022-07-19T12:13:34;3.95;;;2.65;;
22502;SDS011;11418;48.118;9.992;2022-07-19T12:17:35;6.72;;;2.97;;
22502;SDS011;11418;48.118;9.992;2022-07-19T12:25:41;4.22;;;2.60;;
22502;SDS011;11418;48.118;9.992;2022-07-19T12:29:45;6.10;;;2.65;;
22502;SDS011;11418;48.118;9.992;2022-07-19T12:33:47;7.75;;;2.50;;
22502;SDS011;11418;48.118;9.992;2022-07-19T12:38:03;5.07;;;3.17;;
22502;SDS011;11418;48.118;9.992;2022-07-19T12:42:05;6.45;;;2.85;;
22502;SDS011;11418;48.118;9.992;2022-07-19T12:46:06;7.63;;;3.05;;
22502;SDS011;11418;48.118;9.992;2022-07-19T12:50:07;4.13;;;2.90;;
22502;SDS011;11418;48.118;9.992;2022-07-19T12:54:10;4.93;;;2.92;;
22502;SDS011;11418;48.118;9.992;2022-07-19T12:58:12;3.78;;;2.80;;
22502;SDS011;11418;48.118;9.992;2022-07-19T13:02:15;3.35;;;2.85;;
22502;SDS011;11418;48.118;9.992;2022-07-19T13:06:16;5.78;;;2.60;;
22502;SDS011;11418;48.118;9.992;2022-07-19T13:10:17;5.85;;;2.95;;
22502;SDS011;11418;48.118;9.992;2022-07-19T13:14:17;6.88;;;3.08;;
22502;SDS011;11418;48.118;9.992;2022-07-19T13:18:18;4.88;;;2.95;;
22502;SDS011;11418;48.118;9.992;2022-07-19T13:22:19;4.60;;;3.03;;
22502;SDS011;11418;48.118;9.992;2022-07-19T13:26:20;4.72;;;2.85;;
22502;SDS011;11418;48.118;9.992;2022-07-19T13:30:20;4.15;;;2.80;;
22502;SDS011;11418;48.118;9.992;2022-07-19T13:34:21;4.55;;;2.97;;
22502;SDS011;11418;48.118;9.992;2022-07-19T13:38:23;7.55;;;3.00;;
22502;SDS011;11418;48.118;9.992;2022-07-19T13:42:24;3.63;;;2.60;;
22502;SDS011;11418;48.118;9.992;2022-07-19T13:46:24;5.05;;;2.50;;
22502;SDS011;11418;48.118;9.992;2022-07-19T13:50:25;4.47;;;2.80;;
22502;SDS011;11418;48.118;9.992;2022-07-19T13:54:26;5.18;;;2.90;;
22502;SDS011;11418;48.118;9.992;2022-07-19T13:58:26;6.45;;;2.80;;
22502;SDS011;11418;48.118;9.992;2022-07-19T14:02:27;5.18;;;2.40;;
22502;SDS011;11418;48.118;9.992;2022-07-19T14:06:28;5.22;;;2.90;;
22502;SDS011;11418;48.118;9.992;2022-07-19T14:10:28;8.63;;;3.03;;
22502;SDS011;11418;48.118;9.992;2022-07-19T14:14:29;4.53;;;2.60;;
22502;SDS011;11418;48.118;9.992;2022-07-19T14:18:30;3.15;;;2.55;;
22502;SDS011;11418;48.118;9.992;2022-07-19T14:22:31;4.97;;;2.80;;
22502;SDS011;11418;48.118;9.992;2022-07-19T14:26:31;5.55;;;3.10;;
22502;SDS011;11418;48.118;9.992;2022-07-19T14:30:32;7.53;;;3.00;;
22502;SDS011;11418;48.118;9.992;2022-07-19T14:34:33;6.13;;;3.08;;
22502;SDS011;11418;48.118;9.992;2022-07-19T14:38:34;6.32;;;3.08;;
22502;SDS011;11418;48.118;9.992;2022-07-19T14:42:35;4.50;;;2.58;;
22502;SDS011;11418;48.118;9.992;2022-07-19T14:46:35;3.80;;;2.65;;
22502;SDS011;11418;48.118;9.992;2022-07-19T14:50:36;4.70;;;3.05;;
22502;SDS011;11418;48.118;9.992;2022-07-19T14:54:36;6.35;;;3.40;;
22502;SDS011;11418;48.118;9.992;2022-07-19T14:58:37;5.75;;;2.90;;
22502;SDS011;11418;48.118;9.992;2022-07-19T15:02:38;5.50;;;3.63;;
22502;SDS011;11418;48.118;9.992;2022-07-19T15:06:39;9.10;;;3.08;;
22502;SDS011;11418;48.118;9.992;2022-07-19T15:10:41;4.03;;;3.28;;
22502;SDS011;11418;48.118;9.992;2022-07-19T15:14:42;5.15;;;3.33;;
22502;SDS011;11418;48.118;9.992;2022-07-19T15:18:42;6.10;;;2.90;;
22502;SDS011;11418;48.118;9.992;2022-07-19T15:22:43;7.50;;;3.38;;
22502;SDS011;11418;48.118;9.992;2022-07-19T15:26:43;4.47;;;3.40;;
22502;SDS011;11418;48.118;9.992;2022-07-19T15:30:44;4.63;;;3.72;;
22502;SDS011;11418;48.118;9.992;2022-07-19T15:34:45;8.98;;;3.58;;
22502;SDS011;11418;48.118;9.992;2022-07-19T15:38:45;3.80;;;3.40;;
22502;SDS011;11418;48.118;9.992;2022-07-19T15:42:47;7.00;;;3.65;;
22502;SDS011;11418;48.118;9.992;2022-07-19T15:46:49;5.80;;;3.58;;
22502;SDS011;11418;48.118;9.992;2022-07-19T15:50:49;9.07;;;3.72;;
22502;SDS011;11418;48.118;9.992;2022-07-19T15:54:50;9.43;;;3.80;;
22502;SDS011;11418;48.118;9.992;2022-07-19T15:58:50;5.97;;;3.53;;
22502;SDS011;11418;48.118;9.992;2022-07-19T16:02:51;6.75;;;3.50;;
22502;SDS011;11418;48.118;9.992;2022-07-19T16:06:52;7.20;;;4.15;;
22502;SDS011;11418;48.118;9.992;2022-07-19T16:10:52;9.20;;;4.05;;
22502;SDS011;11418;48.118;9.992;2022-07-19T16:14:53;7.57;;;3.67;;
22502;SDS011;11418;48.118;9.992;2022-07-19T16:18:54;7.03;;;3.92;;
22502;SDS011;11418;48.118;9.992;2022-07-19T16:22:56;10.02;;;4.05;;
22502;SDS011;11418;48.118;9.992;2022-07-19T16:26:56;8.70;;;3.90;;
22502;SDS011;11418;48.118;9.992;2022-07-19T16:30:57;5.90;;;3.97;;
22502;SDS011;11418;48.118;9.992;2022-07-19T16:34:57;7.05;;;4.20;;
22502;SDS011;11418;48.118;9.992;2022-07-19T16:38:58;7.78;;;3.63;;
22502;SDS011;11418;48.118;9.992;2022-07-19T16:42:58;10.98;;;4.38;;
22502;SDS011;11418;48.118;9.992;2022-07-19T16:46:59;5.75;;;3.80;;
22502;SDS011;11418;48.118;9.992;2022-07-19T16:50:59;6.13;;;3.70;;
22502;SDS011;11418;48.118;9.992;2022-07-19T16:55:00;8.40;;;4.13;;
22502;SDS011;11418;48.118;9.992;2022-07-19T16:59:00;6.45;;;4.10;;
22502;SDS011;11418;48.118;9.992;2022-07-19T17:03:01;6.38;;;3.60;;
22502;SDS011;11418;48.118;9.992;2022-07-19T17:07:02;8.32;;;4.18;;
22502;SDS011;11418;48.118;9.992;2022-07-19T17:11:02;6.05;;;3.95;;
22502;SDS011;11418;48.118;9.992;2022-07-19T17:15:03;8.00;;;4.57;;
22502;SDS011;11418;48.118;9.992;2022-07-19T17:19:04;4.90;;;4.15;;
22502;SDS011;11418;48.118;9.992;2022-07-19T17:23:05;8.73;;;4.28;;
22502;SDS011;11418;48.118;9.992;2022-07-19T17:27:06;11.55;;;4.82;;
22502;SDS011;11418;48.118;9.992;2022-07-19T17:31:06;8.90;;;4.47;;
22502;SDS011;11418;48.118;9.992;2022-07-19T17:35:07;8.32;;;5.00;;
22502;SDS011;11418;48.118;9.992;2022-07-19T17:39:08;10.07;;;4.50;;
22502;SDS011;11418;48.118;9.992;2022-07-19T17:43:10;6.15;;;4.55;;
22502;SDS011;11418;48.118;9.992;2022-07-19T17:47:11;12.98;;;4.50;;
22502;SDS011;11418;48.118;9.992;2022-07-19T17:51:11;7.68;;;5.03;;
22502;SDS011;11418;48.118;9.992;2022-07-19T17:55:12;7.15;;;5.15;;
22502;SDS011;11418;48.118;9.992;2022-07-19T17:59:14;6.72;;;4.93;;
22502;SDS011;11418;48.118;9.992;2022-07-19T18:03:15;10.70;;;4.90;;
22502;SDS011;11418;48.118;9.992;2022-07-19T18:07:16;11.00;;;5.32;;
22502;SDS011;11418;48.118;9.992;2022-07-19T18:11:17;10.57;;;5.20;;
22502;SDS011;11418;48.118;9.992;2022-07-19T18:15:18;9.75;;;5.22;;
22502;SDS011;11418;48.118;9.992;2022-07-19T18:19:19;9.82;;;5.40;;
22502;SDS011;11418;48.118;9.992;2022-07-19T18:23:20;8.27;;;5.25;;
22502;SDS011;11418;48.118;9.992;2022-07-19T18:27:21;9.27;;;5.82;;
22502;SDS011;11418;48.118;9.992;2022-07-19T18:31:22;9.63;;;5.45;;
22502;SDS011;11418;48.118;9.992;2022-07-19T18:35:23;8.68;;;5.18;;
22502;SDS011;11418;48.118;9.992;2022-07-19T18:39:24;10.68;;;5.85;;
22502;SDS011;11418;48.118;9.992;2022-07-19T18:43:24;9.27;;;5.22;;
22502;SDS011;11418;48.118;9.992;2022-07-19T18:47:25;6.82;;;5.15;;
22502;SDS011;11418;48.118;9.992;2022-07-19T18:51:25;11.20;;;5.47;;
22502;SDS011;11418;48.118;9.992;2022-07-19T18:55:26;10.52;;;5.70;;
22502;SDS011;11418;48.118;9.992;2022-07-19T18:59:27;7.68;;;6.07;;
22502;SDS011;11418;48.118;9.992;2022-07-19T19:03:28;13.20;;;6.35;;
22502;SDS011;11418;48.118;9.992;2022-07-19T19:07:28;9.65;;;5.95;;
22502;SDS011;11418;48.118;9.992;2022-07-19T19:11:29;10.07;;;5.53;;
22502;SDS011;11418;48.118;9.992;2022-07-19T19:15:29;8.05;;;5.65;;
22502;SDS011;11418;48.118;9.992;2022-07-19T19:19:31;8.93;;;5.65;;
22502;SDS011;11418;48.118;9.992;2022-07-19T19:23:32;8.45;;;5.68;;
22502;SDS011;11418;48.118;9.992;2022-07-19T19:27:33;10.50;;;6.32;;
22502;SDS011;11418;48.118;9.992;2022-07-19T19:31:34;12.65;;;6.47;;
22502;SDS011;11418;48.118;9.992;2022-07-19T19:35:34;10.43;;;5.60;;
22502;SDS011;11418;48.118;9.992;2022-07-19T19:39:35;11.52;;;6.00;;
22502;SDS011;11418;48.118;9.992;2022-07-19T19:43:35;9.07;;;5.78;;
22502;SDS011;11418;48.118;9.992;2022-07-19T19:47:36;7.38;;;5.45;;
22502;SDS011;11418;48.118;9.992;2022-07-19T19:51:37;12.65;;;6.25;;
22502;SDS011;11418;48.118;9.992;2022-07-19T19:55:38;10.57;;;5.43;;
22502;SDS011;11418;48.118;9.992;2022-07-19T19:59:39;9.35;;;5.60;;
22502;SDS011;11418;48.118;9.992;2022-07-19T20:03:39;13.48;;;5.85;;
22502;SDS011;11418;48.118;9.992;2022-07-19T20:07:40;9.82;;;6.05;;
22502;SDS011;11418;48.118;9.992;2022-07-19T20:11:42;9.85;;;5.93;;
22502;SDS011;11418;48.118;9.992;2022-07-19T20:15:42;8.77;;;5.38;;
22502;SDS011;11418;48.118;9.992;2022-07-19T20:19:43;11.65;;;6.03;;
22502;SDS011;11418;48.118;9.992;2022-07-19T20:23:43;10.90;;;5.93;;
22502;SDS011;11418;48.118;9.992;2022-07-19T20:27:44;15.90;;;5.90;;
22502;SDS011;11418;48.118;9.992;2022-07-19T20:31:45;11.27;;;5.78;;
22502;SDS011;11418;48.118;9.992;2022-07-19T20:35:45;9.45;;;5.60;;
22502;SDS011;11418;48.118;9.992;2022-07-19T20:39:46;9.48;;;5.55;;
22502;SDS011;11418;48.118;9.992;2022-07-19T20:43:46;8.00;;;5.63;;
22502;SDS011;11418;48.118;9.992;2022-07-19T20:47:47;9.35;;;6.35;;
22502;SDS011;11418;48.118;9.992;2022-07-19T20:51:48;11.10;;;5.70;;
22502;SDS011;11418;48.118;9.992;2022-07-19T20:55:49;11.18;;;5.95;;
22502;SDS011;11418;48.118;9.992;2022-07-19T20:59:50;14.57;;;5.70;;
22502;SDS011;11418;48.118;9.992;2022-07-19T21:03:50;13.85;;;6.07;;
22502;SDS011;11418;48.118;9.992;2022-07-19T21:07:51;9.98;;;5.10;;
22502;SDS011;11418;48.118;9.992;2022-07-19T21:11:53;8.98;;;5.70;;
22502;SDS011;11418;48.118;9.992;2022-07-19T21:15:53;9.88;;;5.75;;
22502;SDS011;11418;48.118;9.992;2022-07-19T21:19:54;11.80;;;5.78;;
22502;SDS011;11418;48.118;9.992;2022-07-19T21:23:54;9.35;;;5.32;;
22502;SDS011;11418;48.118;9.992;2022-07-19T21:27:55;8.82;;;5.88;;
22502;SDS011;11418;48.118;9.992;2022-07-19T21:31:56;6.68;;;4.97;;
22502;SDS011;11418;48.118;9.992;2022-07-19T21:35:56;9.93;;;5.65;;
22502;SDS011;11418;48.118;9.992;2022-07-19T21:39:57;8.38;;;5.65;;
22502;SDS011;11418;48.118;9.992;2022-07-19T21:43:57;10.25;;;5.60;;
22502;SDS011;11418;48.118;9.992;2022-07-19T21:47:58;9.48;;;6.28;;
22502;SDS011;11418;48.118;9.992;2022-07-19T21:51:58;10.38;;;6.03;;
22502;SDS011;11418;48.118;9.992;2022-07-19T21:55:59;13.40;;;5.85;;
22502;SDS011;11418;48.118;9.992;2022-07-19T21:59:59;9.48;;;5.80;;
22502;SDS011;11418;48.118;9.992;2022-07-19T22:04:02;9.18;;;5.22;;
22502;SDS011;11418;48.118;9.992;2022-07-19T22:08:04;8.60;;;5.70;;
22502;SDS011;11418;48.118;9.992;2022-07-19T22:12:04;8.68;;;5.53;;
22502;SDS011;11418;48.118;9.992;2022-07-19T22:16:05;9.98;;;5.85;;
22502;SDS011;11418;48.118;9.992;2022-07-19T22:20:06;11.77;;;5.68;;
22502;SDS011;11418;48.118;9.992;2022-07-19T22:24:07;11.02;;;5.95;;
22502;SDS011;11418;48.118;9.992;2022-07-19T22:28:08;9.02;;;5.50;;
22502;SDS011;11418;48.118;9.992;2022-07-19T22:32:09;12.48;;;6.40;;
22502;SDS011;11418;48.118;9.992;2022-07-19T22:36:09;9.35;;;5.85;;
22502;SDS011;11418;48.118;9.992;2022-07-19T22:40:10;7.10;;;5.40;;
22502;SDS011;11418;48.118;9.992;2022-07-19T22:44:11;10.75;;;6.40;;
22502;SDS011;11418;48.118;9.992;2022-07-19T22:48:12;10.20;;;5.90;;
22502;SDS011;11418;48.118;9.992;2022-07-19T22:52:12;9.18;;;6.25;;
22502;SDS011;11418;48.118;9.992;2022-07-19T22:56:13;9.32;;;5.82;;
22502;SDS011;11418;48.118;9.992;2022-07-19T23:00:14;10.15;;;5.70;;
22502;SDS011;11418;48.118;9.992;2022-07-19T23:04:14;12.00;;;6.30;;
22502;SDS011;11418;48.118;9.992;2022-07-19T23:08:15;8.70;;;5.72;;
22502;SDS011;11418;48.118;9.992;2022-07-19T23:12:16;11.65;;;6.07;;
22502;SDS011;11418;48.118;9.992;2022-07-19T23:16:16;8.77;;;5.80;;
22502;SDS011;11418;48.118;9.992;2022-07-19T23:20:17;13.48;;;6.05;;
22502;SDS011;11418;48.118;9.992;2022-07-19T23:24:18;9.68;;;6.50;;
22502;SDS011;11418;48.118;9.992;2022-07-19T23:28:18;10.95;;;6.00;;
22502;SDS011;11418;48.118;9.992;2022-07-19T23:32:19;8.07;;;5.85;;
22502;SDS011;11418;48.118;9.992;2022-07-19T23:36:19;8.43;;;5.65;;
22502;SDS011;11418;48.118;9.992;2022-07-19T23:40:20;8.95;;;6.40;;
22502;SDS011;11418;48.118;9.992;2022-07-19T23:44:21;11.63;;;6.30;;
22502;SDS011;11418;48.118;9.992;2022-07-19T23:48:22;10.50;;;6.43;;
22502;SDS011;11418;48.118;9.992;2022-07-19T23:52:23;9.02;;;5.93;;
22502;SDS011;11418;48.118;9.992;2022-07-19T23:56:24;8.35;;;6.35;;
